Willits, California
Current Conditions -  °F | °C
As of 4:56 AM on Saturday 01 Nov 2014 (Local Time) from KUKI Reporting Station
Few Clouds Few Clouds  
Wind Chill: 47°   Ceiling: Unl
Heat Index: 47°   Visibility: 10mi
Dew Point: 43°   Wind: 0mph
Humidity: 86%   Direction: NA
Pressure: 29.77"   Gusts: NA
Location:  39.4°N, 123.35°W
Report Text: KUKI 011156Z AUTO 00000KT 10SM FEW065 08/06 A2977 RMK AO2 SLP077 70051 T00830061 10111 20083 51008
Loading
Personal Weather Stations






























Interactive Weather Map
Tropical Storm Tracking
New forecast layout! Learn more

10-Day Weather Forecast

Advertisements
Track Severe Weather on mobile